createdAt,value
2023-05-10T00:01:14.903Z,100483.39
2023-05-10T00:03:41.498Z,100482.69
2023-05-10T00:06:08.047Z,100484.22
2023-05-10T00:08:34.339Z,100482.39
2023-05-10T00:11:01.050Z,100475.95
2023-05-10T00:13:27.800Z,100480.55
2023-05-10T00:15:54.123Z,100483.44
2023-05-10T00:18:20.594Z,100481.75
2023-05-10T00:20:46.847Z,100480.15
2023-05-10T00:23:13.055Z,100481.45
2023-05-10T00:25:39.212Z,100489.48
2023-05-10T00:28:05.515Z,100488.67
2023-05-10T00:30:31.830Z,100486.16
2023-05-10T00:32:58.295Z,100483.23
2023-05-10T00:35:24.822Z,100483.04
2023-05-10T00:37:51.075Z,100484.70
2023-05-10T00:40:17.333Z,100483.43
2023-05-10T00:42:46.637Z,100486.04
2023-05-10T00:45:13.031Z,100485.98
2023-05-10T00:47:40.494Z,100490.39
2023-05-10T00:50:07.109Z,100490.75
2023-05-10T00:52:33.834Z,100493.33
2023-05-10T00:55:00.213Z,100496.36
2023-05-10T00:57:26.515Z,100500.23
2023-05-10T00:59:52.714Z,100497.52
2023-05-10T01:02:18.978Z,100498.10
2023-05-10T01:04:45.394Z,100495.61
2023-05-10T01:07:11.777Z,100491.75
2023-05-10T01:09:38.139Z,100489.66
2023-05-10T01:12:07.232Z,100491.38
2023-05-10T01:14:36.520Z,100492.95
2023-05-10T01:17:03.331Z,100495.75
2023-05-10T01:19:30.016Z,100496.67
2023-05-10T01:22:05.383Z,100494.19
2023-05-10T01:25:04.560Z,100493.77
2023-05-10T01:27:37.289Z,100494.79
2023-05-10T01:30:26.593Z,100494.84
2023-05-10T01:33:25.198Z,100501.46
2023-05-10T01:36:11.615Z,100502.67
2023-05-10T01:38:51.048Z,100501.85
2023-05-10T01:42:03.029Z,100501.26
2023-05-10T01:44:32.119Z,100495.05
2023-05-10T01:47:01.963Z,100494.48
2023-05-10T01:49:31.226Z,100493.14
2023-05-10T01:52:01.016Z,100494.64
2023-05-10T01:54:27.176Z,100495.35
2023-05-10T01:56:57.545Z,100498.66
2023-05-10T01:59:23.744Z,100490.96
2023-05-10T02:01:49.939Z,100495.36
2023-05-10T02:04:17.473Z,100488.67
2023-05-10T02:06:44.029Z,100485.06
2023-05-10T02:09:11.037Z,100479.84
2023-05-10T02:11:40.398Z,100473.62
2023-05-10T02:14:08.477Z,100480.64
2023-05-10T02:16:35.556Z,100480.15
2023-05-10T02:19:01.982Z,100487.61
2023-05-10T02:21:28.592Z,100486.39
2023-05-10T02:23:54.855Z,100486.77
2023-05-10T02:26:21.401Z,100486.81
2023-05-10T02:28:48.538Z,100489.59
2023-05-10T02:31:14.973Z,100481.48
2023-05-10T02:33:41.264Z,100483.85
2023-05-10T02:36:08.218Z,100481.70
2023-05-10T02:38:36.633Z,100481.07
2023-05-10T02:41:03.323Z,100474.48
2023-05-10T02:43:29.754Z,100477.09
2023-05-10T02:45:56.142Z,100473.08
2023-05-10T02:48:22.423Z,100479.85
2023-05-10T02:50:51.610Z,100477.06
2023-05-10T02:53:28.084Z,100475.84
2023-05-10T02:55:54.355Z,100474.42
2023-05-10T02:58:21.213Z,100472.90
2023-05-10T03:00:47.403Z,100469.98
2023-05-10T03:03:13.553Z,100472.20
2023-05-10T03:05:39.728Z,100472.66
2023-05-10T03:08:06.508Z,100471.94
2023-05-10T03:10:33.525Z,100473.83
2023-05-10T03:13:27.207Z,100471.17
2023-05-10T03:16:03.003Z,100475.59
2023-05-10T03:18:33.762Z,100471.70
2023-05-10T03:21:05.545Z,100471.02
2023-05-10T03:23:36.087Z,100470.25
2023-05-10T03:26:02.446Z,100472.58
2023-05-10T03:28:29.559Z,100472.02
2023-05-10T03:30:55.971Z,100469.48
2023-05-10T03:33:23.076Z,100465.33
2023-05-10T03:35:49.472Z,100463.67
2023-05-10T03:38:15.792Z,100462.16
2023-05-10T03:40:42.022Z,100461.72
2023-05-10T03:43:08.463Z,100462.63
2023-05-10T03:45:35.078Z,100462.80
2023-05-10T03:48:01.627Z,100461.95
2023-05-10T03:50:28.055Z,100466.06
2023-05-10T03:52:54.818Z,100467.70
2023-05-10T03:55:21.463Z,100463.86
2023-05-10T03:57:49.849Z,100464.92
2023-05-10T04:00:16.700Z,100463.39
2023-05-10T04:02:43.989Z,100466.02
2023-05-10T04:05:16.507Z,100466.41
2023-05-10T04:07:44.602Z,100467.15
2023-05-10T04:10:11.780Z,100465.91
2023-05-10T04:12:39.107Z,100466.05
2023-05-10T04:15:06.893Z,100468.38
2023-05-10T04:17:34.236Z,100471.68
2023-05-10T04:20:00.880Z,100468.19
2023-05-10T04:22:28.157Z,100465.69
2023-05-10T04:24:54.328Z,100468.95
2023-05-10T04:27:20.606Z,100468.34
2023-05-10T04:29:47.017Z,100470.30
2023-05-10T04:32:13.512Z,100464.80
2023-05-10T04:34:39.817Z,100463.89
2023-05-10T04:37:06.750Z,100463.02
2023-05-10T04:39:34.118Z,100464.00
2023-05-10T04:42:00.281Z,100459.34
2023-05-10T04:44:26.534Z,100457.86
2023-05-10T04:46:52.645Z,100459.48
2023-05-10T04:49:18.841Z,100464.20
2023-05-10T04:51:45.085Z,100464.55
2023-05-10T04:54:11.347Z,100467.75
2023-05-10T04:56:37.698Z,100466.05
2023-05-10T04:59:04.053Z,100471.20
2023-05-10T05:01:30.442Z,100465.52
2023-05-10T05:03:56.894Z,100462.20
2023-05-10T05:08:04.918Z,100457.17
2023-05-10T05:10:32.124Z,100457.30
2023-05-10T05:12:59.182Z,100453.49
2023-05-10T05:15:26.130Z,100452.75
2023-05-10T05:17:53.368Z,100454.89
2023-05-10T05:20:20.553Z,100453.50
2023-05-10T05:22:48.129Z,100449.52
2023-05-10T05:25:16.569Z,100450.04
2023-05-10T05:27:43.844Z,100453.28
2023-05-10T05:30:12.312Z,100452.22
2023-05-10T05:32:39.661Z,100449.98
2023-05-10T05:35:07.471Z,100445.77
2023-05-10T05:37:35.187Z,100443.42
2023-05-10T05:40:02.970Z,100447.70
2023-05-10T05:42:30.634Z,100445.00
2023-05-10T05:44:57.994Z,100445.89
2023-05-10T05:47:25.083Z,100447.34
2023-05-10T05:49:52.384Z,100442.60
2023-05-10T05:52:19.470Z,100446.04
2023-05-10T05:54:46.695Z,100441.61
2023-05-10T05:57:13.795Z,100440.85
2023-05-10T05:59:44.914Z,100444.42
2023-05-10T06:02:12.517Z,100445.81
2023-05-10T06:04:41.558Z,100438.05
2023-05-10T06:07:10.152Z,100442.31
2023-05-10T06:09:37.280Z,100437.05
2023-05-10T06:12:04.635Z,100433.98
2023-05-10T06:14:31.870Z,100435.52
2023-05-10T06:17:01.033Z,100434.77
2023-05-10T06:19:28.604Z,100437.12
2023-05-10T06:21:55.908Z,100430.97
2023-05-10T06:24:23.155Z,100429.41
2023-05-10T06:26:51.263Z,100427.30
2023-05-10T06:29:19.177Z,100432.50
2023-05-10T06:31:46.910Z,100423.36
2023-05-10T06:34:14.917Z,100428.19
2023-05-10T06:36:42.396Z,100430.77
2023-05-10T06:39:09.682Z,100430.30
2023-05-10T06:41:37.025Z,100431.10
2023-05-10T06:44:04.875Z,100430.81
2023-05-10T06:46:32.245Z,100424.20
2023-05-10T06:48:59.437Z,100425.49
2023-05-10T06:51:27.256Z,100421.87
2023-05-10T06:53:54.556Z,100418.81
2023-05-10T06:56:22.765Z,100415.92
2023-05-10T06:58:50.435Z,100414.20
2023-05-10T07:01:17.668Z,100408.95
2023-05-10T07:03:45.067Z,100406.89
2023-05-10T07:06:21.758Z,100409.36
2023-05-10T07:08:53.432Z,100411.23
2023-05-10T07:11:20.484Z,100409.38
2023-05-10T07:13:47.929Z,100407.14
2023-05-10T07:16:15.137Z,100404.25
2023-05-10T07:25:15.645Z,100404.61
2023-05-10T07:27:42.987Z,100397.52
2023-05-10T07:30:11.181Z,100396.26
2023-05-10T07:32:38.688Z,100399.92
2023-05-10T07:35:06.636Z,100395.82
2023-05-10T07:37:33.981Z,100391.84
2023-05-10T07:40:01.940Z,100381.98
2023-05-10T07:42:29.506Z,100394.00
2023-05-10T07:44:56.571Z,100396.44
2023-05-10T07:47:24.826Z,100400.20
2023-05-10T07:49:52.224Z,100401.98
2023-05-10T08:00:00.428Z,100398.86
2023-05-10T08:02:28.041Z,100402.88
2023-05-10T08:04:57.097Z,100404.74
2023-05-10T08:07:25.632Z,100402.20
2023-05-10T08:09:53.964Z,100405.44
2023-05-10T08:12:21.512Z,100402.08
2023-05-10T08:14:48.518Z,100397.36
2023-05-10T08:17:16.241Z,100405.20
2023-05-10T08:26:12.492Z,100400.61
2023-05-10T08:28:39.934Z,100402.45
2023-05-10T08:31:07.183Z,100390.21
2023-05-10T08:33:34.500Z,100395.52
2023-05-10T08:36:01.702Z,100394.85
2023-05-10T08:38:29.036Z,100391.70
2023-05-10T08:41:00.400Z,100390.48
2023-05-10T08:43:29.333Z,100386.11
2023-05-10T08:45:57.892Z,100390.10
2023-05-10T08:48:26.109Z,100384.05
2023-05-10T08:50:56.568Z,100385.89
2023-05-10T08:53:25.939Z,100376.45
2023-05-10T08:55:53.168Z,100371.64
2023-05-10T08:58:21.030Z,100372.76
2023-05-10T09:00:50.100Z,100370.56
2023-05-10T09:03:17.444Z,100368.80
2023-05-10T09:05:45.880Z,100368.48
2023-05-10T09:08:14.045Z,100361.10
2023-05-10T09:10:42.593Z,100352.16
2023-05-10T09:13:09.926Z,100355.95
2023-05-10T09:15:37.383Z,100352.94
2023-05-10T09:18:05.134Z,100353.19
2023-05-10T09:20:32.505Z,100342.38
2023-05-10T09:22:59.755Z,100349.98
2023-05-10T09:25:26.704Z,100346.63
2023-05-10T09:27:54.164Z,100348.45
2023-05-10T09:30:26.723Z,100346.30
2023-05-10T09:32:53.807Z,100342.58
2023-05-10T09:42:32.135Z,100349.88
2023-05-10T09:45:04.878Z,100355.15
2023-05-10T09:47:36.153Z,100355.48
2023-05-10T09:50:04.780Z,100361.04
2023-05-10T09:52:32.571Z,100355.09
2023-05-10T09:55:00.270Z,100347.29
2023-05-10T09:57:27.861Z,100331.02
2023-05-10T09:59:55.521Z,100337.76
2023-05-10T10:02:22.791Z,100350.49
2023-05-10T10:04:50.616Z,100347.15
2023-05-10T10:07:18.631Z,100334.07
2023-05-10T10:09:45.976Z,100342.94
2023-05-10T10:12:13.102Z,100346.09
2023-05-10T10:14:40.492Z,100348.06
2023-05-10T10:17:09.097Z,100344.65
2023-05-10T10:19:37.294Z,100346.77
2023-05-10T10:22:05.371Z,100340.90
2023-05-10T10:24:32.554Z,100349.72
2023-05-10T10:27:40.234Z,100353.25
2023-05-10T10:30:44.965Z,100352.55
2023-05-10T10:33:49.897Z,100349.71
2023-05-10T10:36:17.355Z,100349.34
2023-05-10T10:38:47.675Z,100352.20
2023-05-10T10:41:37.814Z,100346.54
2023-05-10T10:44:26.460Z,100346.59
2023-05-10T10:47:31.357Z,100342.23
2023-05-10T10:50:01.880Z,100336.09
2023-05-10T10:52:34.383Z,100331.75
2023-05-10T10:55:11.600Z,100330.13
2023-05-10T10:57:42.300Z,100327.77
2023-05-10T11:00:23.064Z,100323.23
2023-05-10T11:03:10.322Z,100312.42
2023-05-10T11:05:48.367Z,100304.36
2023-05-10T11:08:17.534Z,100304.73
2023-05-10T11:10:53.356Z,100315.09
2023-05-10T11:13:33.887Z,100312.80
2023-05-10T11:16:20.834Z,100312.20
2023-05-10T11:19:09.465Z,100305.80
2023-05-10T11:21:46.616Z,100303.51
2023-05-10T11:24:21.703Z,100303.72
2023-05-10T11:26:51.382Z,100302.65
2023-05-10T11:29:20.080Z,100305.05
2023-05-10T11:31:48.274Z,100312.05
2023-05-10T11:34:25.018Z,100305.77
2023-05-10T11:36:53.003Z,100308.98
2023-05-10T11:39:20.116Z,100308.65
2023-05-10T11:41:49.941Z,100310.58
2023-05-10T11:44:17.309Z,100305.70
2023-05-10T11:46:45.301Z,100303.83
2023-05-10T11:49:14.589Z,100305.75
2023-05-10T11:51:43.563Z,100306.30
2023-05-10T11:54:11.790Z,100306.19
2023-05-10T12:03:36.648Z,100294.67
2023-05-10T12:06:04.267Z,100292.27
2023-05-10T12:08:32.101Z,100290.02
2023-05-10T12:11:09.454Z,100291.02
2023-05-10T12:13:44.319Z,100289.30
2023-05-10T12:16:19.283Z,100282.27
2023-05-10T12:18:49.385Z,100285.54
2023-05-10T12:21:16.350Z,100285.80
2023-05-10T12:23:43.664Z,100279.66
2023-05-10T12:26:11.383Z,100283.13
2023-05-10T12:28:38.368Z,100278.45
2023-05-10T12:31:07.433Z,100279.15
2023-05-10T12:33:44.764Z,100279.09
2023-05-10T12:36:13.695Z,100283.42
2023-05-10T12:38:46.428Z,100276.32
2023-05-10T12:41:16.571Z,100274.29
2023-05-10T12:43:43.548Z,100272.39
2023-05-10T12:46:15.491Z,100275.29
2023-05-10T12:48:43.877Z,100276.19
2023-05-10T12:57:29.193Z,100274.87
2023-05-10T12:59:56.934Z,100278.26
2023-05-10T13:02:24.364Z,100281.40
2023-05-10T13:04:51.691Z,100281.15
2023-05-10T13:07:18.996Z,100282.00
2023-05-10T13:09:46.223Z,100281.81
2023-05-10T13:12:13.585Z,100283.09
2023-05-10T13:14:41.685Z,100277.48
2023-05-10T13:17:08.890Z,100284.44
2023-05-10T13:19:36.282Z,100280.05
2023-05-10T13:22:03.942Z,100277.83
2023-05-10T13:24:31.217Z,100276.60
2023-05-10T13:26:59.055Z,100278.70
2023-05-10T13:29:26.419Z,100281.84
2023-05-10T13:31:53.588Z,100275.45
2023-05-10T13:34:21.781Z,100274.00
2023-05-10T13:36:49.918Z,100271.45
2023-05-10T13:39:17.156Z,100270.15
2023-05-10T13:41:44.364Z,100271.13
2023-05-10T13:44:15.779Z,100270.16
2023-05-10T13:46:43.536Z,100272.08
2023-05-10T13:49:10.758Z,100270.11
2023-05-10T13:51:37.937Z,100275.44
2023-05-10T13:54:04.815Z,100271.54
2023-05-10T13:56:38.159Z,100270.40
2023-05-10T13:59:05.880Z,100269.91
2023-05-10T14:01:33.183Z,100268.52
2023-05-10T14:04:01.473Z,100275.72
2023-05-10T14:06:29.754Z,100273.23
2023-05-10T14:08:57.695Z,100272.80
2023-05-10T14:11:25.048Z,100273.39
2023-05-10T14:13:52.493Z,100274.46
2023-05-10T14:16:21.502Z,100275.41
2023-05-10T14:18:49.169Z,100277.02
2023-05-10T14:21:16.522Z,100273.44
2023-05-10T14:23:43.592Z,100278.13
2023-05-10T14:26:10.645Z,100278.09
2023-05-10T14:28:37.977Z,100278.66
2023-05-10T14:31:05.020Z,100278.05
2023-05-10T14:33:32.358Z,100281.03
2023-05-10T14:36:00.683Z,100282.13
2023-05-10T14:38:27.718Z,100291.02
2023-05-10T14:40:54.745Z,100288.76
2023-05-10T14:43:22.199Z,100297.25
2023-05-10T14:45:49.481Z,100291.72
2023-05-10T14:48:18.587Z,100295.75
2023-05-10T14:50:46.288Z,100300.98
2023-05-10T14:53:35.888Z,100298.34
2023-05-10T14:56:03.997Z,100301.25
2023-05-10T14:58:34.539Z,100298.38
2023-05-10T15:01:02.260Z,100295.98
2023-05-10T15:03:30.509Z,100296.91
2023-05-10T15:05:59.213Z,100293.48
2023-05-10T15:08:27.166Z,100295.98
2023-05-10T15:10:56.889Z,100291.89
2023-05-10T15:13:25.045Z,100291.95
2023-05-10T15:15:52.668Z,100294.17
2023-05-10T15:18:20.163Z,100292.63
2023-05-10T15:20:49.098Z,100290.98
2023-05-10T15:30:57.573Z,100285.44
2023-05-10T15:33:25.513Z,100285.17
2023-05-10T15:35:52.466Z,100286.20
2023-05-10T15:38:19.626Z,100288.73
2023-05-10T15:40:46.864Z,100287.35
2023-05-10T15:43:14.151Z,100291.66
2023-05-10T15:45:41.752Z,100293.69
2023-05-10T15:48:08.999Z,100292.02
2023-05-10T15:50:36.262Z,100290.59
2023-05-10T15:53:03.499Z,100295.81
2023-05-10T15:55:31.049Z,100294.79
2023-05-10T15:57:58.806Z,100291.46
2023-05-10T16:00:26.280Z,100291.10
2023-05-10T16:02:54.283Z,100287.98
2023-05-10T16:05:22.645Z,100288.08
2023-05-10T16:07:49.955Z,100287.80
2023-05-10T16:10:17.229Z,100289.29
2023-05-10T16:12:45.654Z,100290.70
2023-05-10T16:15:13.017Z,100288.06
2023-05-10T16:17:41.254Z,100285.58
2023-05-10T16:20:09.513Z,100290.24
2023-05-10T16:22:37.585Z,100289.73
2023-05-10T16:25:05.770Z,100290.80
2023-05-10T16:27:33.676Z,100289.10
2023-05-10T16:30:00.881Z,100291.75
2023-05-10T16:32:28.193Z,100291.45
2023-05-10T16:34:55.401Z,100292.55
2023-05-10T16:37:22.650Z,100294.64
2023-05-10T16:39:49.741Z,100299.85
2023-05-10T16:42:17.655Z,100296.65
2023-05-10T16:44:45.201Z,100299.77
2023-05-10T16:47:12.660Z,100300.46
2023-05-10T16:49:39.762Z,100303.10
2023-05-10T16:52:07.374Z,100301.13
2023-05-10T16:54:35.276Z,100302.20
2023-05-10T16:57:02.545Z,100298.52
2023-05-10T16:59:29.758Z,100298.81
2023-05-10T17:01:57.019Z,100296.89
2023-05-10T17:04:25.064Z,100297.84
2023-05-10T17:06:52.216Z,100296.19
2023-05-10T17:09:20.741Z,100299.38
2023-05-10T17:11:48.458Z,100296.81
2023-05-10T17:14:15.826Z,100296.73
2023-05-10T17:16:43.114Z,100303.61
2023-05-10T17:19:10.439Z,100306.44
2023-05-10T17:21:37.913Z,100299.30
2023-05-10T17:25:47.039Z,100308.81
2023-05-10T17:28:17.213Z,100308.54
2023-05-10T17:30:45.047Z,100311.55
2023-05-10T17:33:12.352Z,100307.45
2023-05-10T17:35:39.517Z,100310.42
2023-05-10T17:38:06.916Z,100314.92
2023-05-10T17:40:34.726Z,100314.05
2023-05-10T17:43:02.200Z,100319.02
2023-05-10T17:45:29.689Z,100317.53
2023-05-10T17:47:56.979Z,100318.52
2023-05-10T17:50:25.273Z,100318.71
2023-05-10T17:52:52.335Z,100318.67
2023-05-10T17:55:19.699Z,100321.72
2023-05-10T17:57:47.402Z,100321.63
2023-05-10T18:00:16.255Z,100325.22
2023-05-10T18:02:44.248Z,100326.69
2023-05-10T18:05:12.757Z,100324.61
2023-05-10T18:07:40.422Z,100325.98
2023-05-10T18:10:08.307Z,100328.88
2023-05-10T18:12:35.989Z,100326.28
2023-05-10T18:15:03.463Z,100324.67
2023-05-10T18:17:32.019Z,100326.65
2023-05-10T18:19:59.196Z,100325.36
2023-05-10T18:22:27.160Z,100325.59
2023-05-10T18:24:54.093Z,100324.94
2023-05-10T18:27:21.579Z,100326.05
2023-05-10T18:29:48.587Z,100321.65
2023-05-10T18:32:15.509Z,100325.79
2023-05-10T18:34:42.653Z,100323.01
2023-05-10T18:37:11.560Z,100325.82
2023-05-10T18:39:38.744Z,100322.11
2023-05-10T18:42:06.089Z,100321.90
2023-05-10T18:44:33.096Z,100322.61
2023-05-10T18:47:00.129Z,100324.93
2023-05-10T18:49:27.932Z,100321.22
2023-05-10T18:51:54.969Z,100321.33
2023-05-10T18:54:21.952Z,100322.98
2023-05-10T18:56:49.943Z,100325.77
2023-05-10T18:59:16.790Z,100318.77
2023-05-10T19:01:43.800Z,100319.10
2023-05-10T19:04:11.006Z,100314.88
2023-05-10T19:06:38.002Z,100314.27
2023-05-10T19:09:04.882Z,100312.41
2023-05-10T19:11:34.101Z,100311.98
2023-05-10T19:14:01.658Z,100314.55
2023-05-10T19:16:29.965Z,100311.10
2023-05-10T19:18:57.623Z,100310.11
2023-05-10T19:21:24.825Z,100310.52
2023-05-10T19:23:52.269Z,100309.14
2023-05-10T19:26:19.567Z,100308.08
2023-05-10T19:28:46.856Z,100304.21
2023-05-10T19:31:13.847Z,100310.20
2023-05-10T19:33:41.031Z,100306.05
2023-05-10T19:36:08.163Z,100308.14
2023-05-10T19:38:35.485Z,100308.40
2023-05-10T19:41:02.498Z,100308.04
2023-05-10T19:43:32.720Z,100306.34
2023-05-10T19:46:01.647Z,100304.46
2023-05-10T19:48:28.880Z,100302.89
2023-05-10T19:51:07.690Z,100306.21
2023-05-10T19:53:36.859Z,100304.50
2023-05-10T19:56:04.735Z,100302.13
2023-05-10T19:58:32.646Z,100302.33
2023-05-10T20:01:00.160Z,100307.31
2023-05-10T20:03:30.218Z,100303.65
2023-05-10T20:05:57.437Z,100304.42
2023-05-10T20:08:25.352Z,100300.50
2023-05-10T20:10:52.393Z,100301.25
2023-05-10T20:13:20.095Z,100298.67
2023-05-10T20:15:48.077Z,100303.09
2023-05-10T20:18:15.266Z,100304.23
2023-05-10T20:20:45.433Z,100306.60
2023-05-10T20:23:12.518Z,100301.70
2023-05-10T20:25:39.370Z,100298.48
2023-05-10T20:28:08.504Z,100300.89
2023-05-10T20:30:35.972Z,100302.19
2023-05-10T20:33:04.373Z,100299.95
2023-05-10T20:35:32.259Z,100299.26
2023-05-10T20:38:00.151Z,100293.01
2023-05-10T20:40:27.066Z,100289.44
2023-05-10T20:42:54.206Z,100289.97
2023-05-10T20:45:21.198Z,100286.70
2023-05-10T20:47:48.658Z,100283.15
2023-05-10T20:50:15.923Z,100284.73
2023-05-10T20:52:42.948Z,100283.98
2023-05-10T20:55:10.054Z,100285.74
2023-05-10T20:57:37.272Z,100285.91
2023-05-10T21:00:05.717Z,100281.98
2023-05-10T21:02:33.023Z,100280.31
2023-05-10T21:04:59.954Z,100281.60
2023-05-10T21:07:26.947Z,100281.42
2023-05-10T21:09:53.900Z,100282.15
2023-05-10T21:12:20.931Z,100278.27
2023-05-10T21:14:47.984Z,100278.96
2023-05-10T21:17:18.164Z,100277.88
2023-05-10T21:19:46.816Z,100280.51
2023-05-10T21:22:13.934Z,100278.36
2023-05-10T21:24:40.984Z,100274.65
2023-05-10T21:27:09.079Z,100272.80
2023-05-10T21:29:36.092Z,100272.05
2023-05-10T21:32:03.083Z,100271.47
2023-05-10T21:34:30.320Z,100270.20
2023-05-10T21:36:57.288Z,100265.77
2023-05-10T21:39:24.147Z,100269.66
2023-05-10T21:41:51.064Z,100266.60
2023-05-10T21:44:18.287Z,100268.95
2023-05-10T21:46:45.482Z,100273.42
2023-05-10T21:49:12.414Z,100276.78
2023-05-10T21:51:39.425Z,100277.52
2023-05-10T21:54:06.355Z,100279.19
2023-05-10T21:56:33.202Z,100273.99
2023-05-10T21:59:00.203Z,100277.22
2023-05-10T22:01:27.415Z,100272.34
2023-05-10T22:03:54.542Z,100271.45
2023-05-10T22:06:21.693Z,100265.66
2023-05-10T22:08:48.658Z,100266.60
2023-05-10T22:11:15.472Z,100266.20
2023-05-10T22:13:42.554Z,100268.55
2023-05-10T22:16:09.788Z,100268.52
2023-05-10T22:18:36.646Z,100262.45
2023-05-10T22:21:03.759Z,100264.89
2023-05-10T22:23:30.767Z,100271.08
2023-05-10T22:26:04.039Z,100272.72
2023-05-10T22:28:30.953Z,100276.59
2023-05-10T22:30:58.085Z,100273.41
2023-05-10T22:33:25.115Z,100274.07
2023-05-10T22:35:52.190Z,100273.31
2023-05-10T22:38:19.230Z,100270.12
2023-05-10T22:40:46.242Z,100270.92
2023-05-10T22:43:13.182Z,100270.52
2023-05-10T22:45:40.507Z,100265.93
2023-05-10T22:48:08.526Z,100269.07
2023-05-10T22:50:37.199Z,100267.59
2023-05-10T22:53:04.110Z,100269.47
2023-05-10T22:55:31.252Z,100267.52
2023-05-10T22:57:58.093Z,100265.84
2023-05-10T23:00:25.045Z,100269.01
2023-05-10T23:02:52.122Z,100270.38
2023-05-10T23:05:19.340Z,100261.80
2023-05-10T23:07:48.590Z,100260.03
2023-05-10T23:10:15.520Z,100259.83
2023-05-10T23:12:42.531Z,100262.09
2023-05-10T23:15:10.128Z,100260.66
2023-05-10T23:17:37.964Z,100263.58
2023-05-10T23:20:05.393Z,100263.16
2023-05-10T23:22:32.522Z,100266.09
2023-05-10T23:24:59.400Z,100263.12
2023-05-10T23:27:29.716Z,100260.52
2023-05-10T23:29:57.225Z,100265.27
2023-05-10T23:32:24.454Z,100261.52
2023-05-10T23:34:51.439Z,100261.13
2023-05-10T23:37:18.310Z,100259.55
2023-05-10T23:39:45.330Z,100261.50
2023-05-10T23:42:13.054Z,100264.58
2023-05-10T23:44:39.931Z,100266.54
2023-05-10T23:47:07.196Z,100265.85
2023-05-10T23:49:34.094Z,100270.35
2023-05-10T23:52:01.317Z,100272.02
2023-05-10T23:54:28.605Z,100268.98
2023-05-10T23:56:55.446Z,100274.31
2023-05-10T23:59:22.370Z,100266.02
